METAR Data
IDs: Format: Raw Decoded Include TAF

Data at: 1933 UTC 08 Feb 2023

KATW 081845Z 21008KT 10SM SCT120 06/M02 A3012

KATW 081729Z 0818/0918 21008G15KT P6SM SKC
  FM082100 17006KT P6SM SCT250
  FM091200 04008KT P6SM OVC060
  FM091400 03012G21KT 1SM -SN OVC008
  FM091600 02014G25KT 1/2SM SN FG OVC004